sensor_id;sensor_type;location;lat;lon;timestamp;P1;durP1;ratioP1;P2;durP2;ratioP2
38465;SDS011;24244;51.950;5.902;2023-01-01T00:01:39;18.10;;;9.90;;
38465;SDS011;24244;51.950;5.902;2023-01-01T00:04:10;16.00;;;8.38;;
38465;SDS011;24244;51.950;5.902;2023-01-01T00:06:39;12.32;;;6.70;;
38465;SDS011;24244;51.950;5.902;2023-01-01T00:09:06;19.90;;;9.48;;
38465;SDS011;24244;51.950;5.902;2023-01-01T00:11:52;13.25;;;7.53;;
38465;SDS011;24244;51.950;5.902;2023-01-01T00:14:18;13.93;;;6.53;;
38465;SDS011;24244;51.950;5.902;2023-01-01T00:16:45;14.02;;;6.05;;
38465;SDS011;24244;51.950;5.902;2023-01-01T00:19:12;12.63;;;5.68;;
38465;SDS011;24244;51.950;5.902;2023-01-01T00:21:42;11.02;;;5.22;;
38465;SDS011;24244;51.950;5.902;2023-01-01T00:24:09;11.82;;;5.60;;
38465;SDS011;24244;51.950;5.902;2023-01-01T00:26:36;10.55;;;5.55;;
38465;SDS011;24244;51.950;5.902;2023-01-01T00:29:04;8.70;;;5.20;;
38465;SDS011;24244;51.950;5.902;2023-01-01T00:31:31;9.13;;;4.22;;
38465;SDS011;24244;51.950;5.902;2023-01-01T00:34:04;8.02;;;3.45;;
38465;SDS011;24244;51.950;5.902;2023-01-01T00:36:31;7.38;;;3.13;;
38465;SDS011;24244;51.950;5.902;2023-01-01T00:39:04;7.57;;;2.88;;
38465;SDS011;24244;51.950;5.902;2023-01-01T00:41:35;8.05;;;2.55;;
38465;SDS011;24244;51.950;5.902;2023-01-01T00:44:03;8.02;;;2.35;;
38465;SDS011;24244;51.950;5.902;2023-01-01T00:46:30;7.63;;;2.75;;
38465;SDS011;24244;51.950;5.902;2023-01-01T00:48:57;6.20;;;2.40;;
38465;SDS011;24244;51.950;5.902;2023-01-01T00:51:23;7.95;;;2.50;;
38465;SDS011;24244;51.950;5.902;2023-01-01T00:53:51;4.70;;;2.30;;
38465;SDS011;24244;51.950;5.902;2023-01-01T00:56:21;8.07;;;2.80;;
38465;SDS011;24244;51.950;5.902;2023-01-01T00:58:48;6.03;;;2.00;;
38465;SDS011;24244;51.950;5.902;2023-01-01T01:01:27;4.30;;;1.90;;
38465;SDS011;24244;51.950;5.902;2023-01-01T01:03:57;10.82;;;2.90;;
38465;SDS011;24244;51.950;5.902;2023-01-01T01:06:24;7.13;;;2.50;;
38465;SDS011;24244;51.950;5.902;2023-01-01T01:08:52;5.47;;;3.33;;
38465;SDS011;24244;51.950;5.902;2023-01-01T01:11:21;7.07;;;3.17;;
38465;SDS011;24244;51.950;5.902;2023-01-01T01:13:53;4.30;;;2.47;;
38465;SDS011;24244;51.950;5.902;2023-01-01T01:16:22;5.78;;;2.20;;
38465;SDS011;24244;51.950;5.902;2023-01-01T01:18:51;5.22;;;1.92;;
38465;SDS011;24244;51.950;5.902;2023-01-01T01:21:20;4.63;;;1.40;;
38465;SDS011;24244;51.950;5.902;2023-01-01T01:23:49;4.35;;;1.45;;
38465;SDS011;24244;51.950;5.902;2023-01-01T01:26:17;3.33;;;1.45;;
38465;SDS011;24244;51.950;5.902;2023-01-01T01:28:47;4.60;;;1.33;;
38465;SDS011;24244;51.950;5.902;2023-01-01T01:31:15;2.83;;;1.00;;
38465;SDS011;24244;51.950;5.902;2023-01-01T01:33:43;4.80;;;1.10;;
38465;SDS011;24244;51.950;5.902;2023-01-01T01:36:10;5.47;;;1.55;;
38465;SDS011;24244;51.950;5.902;2023-01-01T01:38:39;4.70;;;1.60;;
38465;SDS011;24244;51.950;5.902;2023-01-01T01:41:06;4.20;;;1.67;;
38465;SDS011;24244;51.950;5.902;2023-01-01T01:43:50;4.95;;;1.70;;
38465;SDS011;24244;51.950;5.902;2023-01-01T01:46:20;4.28;;;1.33;;
38465;SDS011;24244;51.950;5.902;2023-01-01T01:48:52;5.85;;;1.20;;
38465;SDS011;24244;51.950;5.902;2023-01-01T01:51:23;5.03;;;1.17;;
38465;SDS011;24244;51.950;5.902;2023-01-01T01:53:59;4.65;;;1.40;;
38465;SDS011;24244;51.950;5.902;2023-01-01T01:56:30;2.80;;;1.05;;
38465;SDS011;24244;51.950;5.902;2023-01-01T01:59:04;3.55;;;1.00;;
38465;SDS011;24244;51.950;5.902;2023-01-01T02:01:32;2.75;;;1.02;;
38465;SDS011;24244;51.950;5.902;2023-01-01T02:03:59;2.58;;;1.42;;
38465;SDS011;24244;51.950;5.902;2023-01-01T02:06:28;4.78;;;1.52;;
38465;SDS011;24244;51.950;5.902;2023-01-01T02:08:57;3.45;;;1.10;;
38465;SDS011;24244;51.950;5.902;2023-01-01T02:11:27;3.90;;;0.93;;
38465;SDS011;24244;51.950;5.902;2023-01-01T02:13:54;3.95;;;1.00;;
38465;SDS011;24244;51.950;5.902;2023-01-01T02:16:25;2.42;;;0.98;;
38465;SDS011;24244;51.950;5.902;2023-01-01T02:18:58;2.55;;;0.80;;
38465;SDS011;24244;51.950;5.902;2023-01-01T02:21:35;4.90;;;1.02;;
38465;SDS011;24244;51.950;5.902;2023-01-01T02:24:16;4.28;;;1.25;;
38465;SDS011;24244;51.950;5.902;2023-01-01T02:26:52;3.30;;;0.75;;
38465;SDS011;24244;51.950;5.902;2023-01-01T02:29:26;3.13;;;0.90;;
38465;SDS011;24244;51.950;5.902;2023-01-01T02:31:59;3.75;;;0.82;;
38465;SDS011;24244;51.950;5.902;2023-01-01T02:34:32;3.65;;;1.00;;
38465;SDS011;24244;51.950;5.902;2023-01-01T02:37:02;4.43;;;1.20;;
38465;SDS011;24244;51.950;5.902;2023-01-01T02:39:34;5.50;;;1.35;;
38465;SDS011;24244;51.950;5.902;2023-01-01T02:42:07;4.32;;;1.40;;
38465;SDS011;24244;51.950;5.902;2023-01-01T02:44:37;3.92;;;1.00;;
38465;SDS011;24244;51.950;5.902;2023-01-01T02:47:08;3.78;;;0.90;;
38465;SDS011;24244;51.950;5.902;2023-01-01T02:49:38;3.70;;;1.10;;
38465;SDS011;24244;51.950;5.902;2023-01-01T02:52:14;4.65;;;1.10;;
38465;SDS011;24244;51.950;5.902;2023-01-01T02:54:52;2.55;;;1.00;;
38465;SDS011;24244;51.950;5.902;2023-01-01T02:57:29;3.30;;;1.08;;
38465;SDS011;24244;51.950;5.902;2023-01-01T03:00:05;3.22;;;0.80;;
38465;SDS011;24244;51.950;5.902;2023-01-01T03:05:46;2.42;;;0.68;;
38465;SDS011;24244;51.950;5.902;2023-01-01T03:08:40;2.70;;;0.77;;
38465;SDS011;24244;51.950;5.902;2023-01-01T03:11:13;3.42;;;1.10;;
38465;SDS011;24244;51.950;5.902;2023-01-01T03:13:46;2.33;;;0.60;;
38465;SDS011;24244;51.950;5.902;2023-01-01T03:16:20;2.78;;;0.70;;
38465;SDS011;24244;51.950;5.902;2023-01-01T03:18:51;5.00;;;1.30;;
38465;SDS011;24244;51.950;5.902;2023-01-01T03:21:38;3.15;;;0.68;;
38465;SDS011;24244;51.950;5.902;2023-01-01T03:24:08;2.80;;;0.60;;
38465;SDS011;24244;51.950;5.902;2023-01-01T03:26:41;4.85;;;0.70;;
38465;SDS011;24244;51.950;5.902;2023-01-01T03:29:10;2.20;;;0.68;;
38465;SDS011;24244;51.950;5.902;2023-01-01T03:31:41;2.30;;;0.50;;
38465;SDS011;24244;51.950;5.902;2023-01-01T03:34:10;1.60;;;0.50;;
38465;SDS011;24244;51.950;5.902;2023-01-01T03:36:43;4.05;;;1.40;;
38465;SDS011;24244;51.950;5.902;2023-01-01T03:39:16;2.33;;;0.63;;
38465;SDS011;24244;51.950;5.902;2023-01-01T03:41:49;3.78;;;0.85;;
38465;SDS011;24244;51.950;5.902;2023-01-01T03:44:24;3.50;;;0.68;;
38465;SDS011;24244;51.950;5.902;2023-01-01T03:46:57;4.43;;;0.85;;
38465;SDS011;24244;51.950;5.902;2023-01-01T03:49:24;1.60;;;0.70;;
38465;SDS011;24244;51.950;5.902;2023-01-01T03:52:00;3.05;;;1.10;;
38465;SDS011;24244;51.950;5.902;2023-01-01T03:54:43;1.60;;;0.52;;
38465;SDS011;24244;51.950;5.902;2023-01-01T03:57:15;2.92;;;0.80;;
38465;SDS011;24244;51.950;5.902;2023-01-01T03:59:49;3.90;;;0.70;;
38465;SDS011;24244;51.950;5.902;2023-01-01T04:02:26;2.25;;;0.60;;
38465;SDS011;24244;51.950;5.902;2023-01-01T04:04:58;2.25;;;0.90;;
38465;SDS011;24244;51.950;5.902;2023-01-01T04:07:28;2.08;;;0.70;;
38465;SDS011;24244;51.950;5.902;2023-01-01T04:09:56;3.33;;;0.77;;
38465;SDS011;24244;51.950;5.902;2023-01-01T04:12:27;5.30;;;0.70;;
38465;SDS011;24244;51.950;5.902;2023-01-01T04:14:55;3.08;;;0.40;;
38465;SDS011;24244;51.950;5.902;2023-01-01T04:17:22;3.20;;;0.80;;
38465;SDS011;24244;51.950;5.902;2023-01-01T04:19:50;3.60;;;0.70;;
38465;SDS011;24244;51.950;5.902;2023-01-01T04:22:20;4.38;;;0.68;;
38465;SDS011;24244;51.950;5.902;2023-01-01T04:24:49;2.83;;;0.77;;
38465;SDS011;24244;51.950;5.902;2023-01-01T04:27:15;4.22;;;0.70;;
38465;SDS011;24244;51.950;5.902;2023-01-01T04:29:43;4.28;;;0.60;;
38465;SDS011;24244;51.950;5.902;2023-01-01T04:32:11;4.45;;;0.80;;
38465;SDS011;24244;51.950;5.902;2023-01-01T04:34:38;5.07;;;0.75;;
38465;SDS011;24244;51.950;5.902;2023-01-01T04:37:06;2.58;;;0.65;;
38465;SDS011;24244;51.950;5.902;2023-01-01T04:39:38;2.42;;;0.60;;
38465;SDS011;24244;51.950;5.902;2023-01-01T04:42:09;4.30;;;0.73;;
38465;SDS011;24244;51.950;5.902;2023-01-01T04:44:36;4.00;;;1.70;;
38465;SDS011;24244;51.950;5.902;2023-01-01T04:47:03;4.25;;;1.88;;
38465;SDS011;24244;51.950;5.902;2023-01-01T04:49:34;2.97;;;1.05;;
38465;SDS011;24244;51.950;5.902;2023-01-01T04:52:02;4.13;;;1.85;;
38465;SDS011;24244;51.950;5.902;2023-01-01T04:54:30;2.75;;;1.23;;
38465;SDS011;24244;51.950;5.902;2023-01-01T04:56:57;3.38;;;1.90;;
38465;SDS011;24244;51.950;5.902;2023-01-01T04:59:28;4.28;;;1.60;;
38465;SDS011;24244;51.950;5.902;2023-01-01T05:01:55;4.75;;;2.00;;
38465;SDS011;24244;51.950;5.902;2023-01-01T05:04:24;5.47;;;2.65;;
38465;SDS011;24244;51.950;5.902;2023-01-01T05:06:51;5.53;;;2.05;;
38465;SDS011;24244;51.950;5.902;2023-01-01T05:09:18;14.10;;;7.28;;
38465;SDS011;24244;51.950;5.902;2023-01-01T05:11:46;6.70;;;3.17;;
38465;SDS011;24244;51.950;5.902;2023-01-01T05:14:13;5.43;;;2.28;;
38465;SDS011;24244;51.950;5.902;2023-01-01T05:16:40;5.40;;;1.88;;
38465;SDS011;24244;51.950;5.902;2023-01-01T05:19:08;2.78;;;1.42;;
38465;SDS011;24244;51.950;5.902;2023-01-01T05:21:36;3.67;;;1.02;;
38465;SDS011;24244;51.950;5.902;2023-01-01T05:24:06;2.38;;;0.70;;
38465;SDS011;24244;51.950;5.902;2023-01-01T05:26:34;3.22;;;0.90;;
38465;SDS011;24244;51.950;5.902;2023-01-01T05:29:04;3.70;;;0.75;;
38465;SDS011;24244;51.950;5.902;2023-01-01T05:31:41;1.55;;;0.70;;
38465;SDS011;24244;51.950;5.902;2023-01-01T05:34:08;3.22;;;0.70;;
38465;SDS011;24244;51.950;5.902;2023-01-01T05:36:35;2.70;;;0.73;;
38465;SDS011;24244;51.950;5.902;2023-01-01T05:39:04;3.85;;;0.90;;
38465;SDS011;24244;51.950;5.902;2023-01-01T05:41:32;3.50;;;0.63;;
38465;SDS011;24244;51.950;5.902;2023-01-01T05:44:02;3.35;;;0.77;;
38465;SDS011;24244;51.950;5.902;2023-01-01T05:46:31;2.80;;;0.70;;
38465;SDS011;24244;51.950;5.902;2023-01-01T05:48:59;1.80;;;0.40;;
38465;SDS011;24244;51.950;5.902;2023-01-01T05:51:26;2.13;;;0.40;;
38465;SDS011;24244;51.950;5.902;2023-01-01T05:53:55;3.72;;;0.60;;
38465;SDS011;24244;51.950;5.902;2023-01-01T05:56:22;1.17;;;0.32;;
38465;SDS011;24244;51.950;5.902;2023-01-01T05:58:50;2.75;;;0.50;;
38465;SDS011;24244;51.950;5.902;2023-01-01T06:01:17;2.38;;;0.40;;
38465;SDS011;24244;51.950;5.902;2023-01-01T06:03:47;1.50;;;0.30;;
38465;SDS011;24244;51.950;5.902;2023-01-01T06:06:15;3.42;;;0.60;;
38465;SDS011;24244;51.950;5.902;2023-01-01T06:08:47;2.22;;;0.60;;
38465;SDS011;24244;51.950;5.902;2023-01-01T06:11:15;3.50;;;0.85;;
38465;SDS011;24244;51.950;5.902;2023-01-01T06:13:42;4.35;;;0.80;;
38465;SDS011;24244;51.950;5.902;2023-01-01T06:16:08;2.97;;;0.68;;
38465;SDS011;24244;51.950;5.902;2023-01-01T06:18:35;1.75;;;0.73;;
38465;SDS011;24244;51.950;5.902;2023-01-01T06:21:05;3.47;;;1.05;;
38465;SDS011;24244;51.950;5.902;2023-01-01T06:23:32;3.35;;;0.82;;
38465;SDS011;24244;51.950;5.902;2023-01-01T06:26:03;2.83;;;0.40;;
38465;SDS011;24244;51.950;5.902;2023-01-01T06:28:33;1.85;;;0.32;;
38465;SDS011;24244;51.950;5.902;2023-01-01T06:31:00;2.25;;;0.40;;
38465;SDS011;24244;51.950;5.902;2023-01-01T06:33:27;1.67;;;0.50;;
38465;SDS011;24244;51.950;5.902;2023-01-01T06:35:55;1.90;;;0.50;;
38465;SDS011;24244;51.950;5.902;2023-01-01T06:38:23;2.40;;;0.77;;
38465;SDS011;24244;51.950;5.902;2023-01-01T06:40:56;1.17;;;0.30;;
38465;SDS011;24244;51.950;5.902;2023-01-01T06:43:23;1.75;;;0.43;;
38465;SDS011;24244;51.950;5.902;2023-01-01T06:45:58;1.60;;;0.40;;
38465;SDS011;24244;51.950;5.902;2023-01-01T06:48:26;0.80;;;0.40;;
38465;SDS011;24244;51.950;5.902;2023-01-01T06:50:54;2.05;;;0.40;;
38465;SDS011;24244;51.950;5.902;2023-01-01T06:53:26;3.75;;;0.60;;
38465;SDS011;24244;51.950;5.902;2023-01-01T06:55:52;2.58;;;0.50;;
38465;SDS011;24244;51.950;5.902;2023-01-01T06:58:22;1.73;;;0.40;;
38465;SDS011;24244;51.950;5.902;2023-01-01T07:00:49;1.00;;;0.30;;
38465;SDS011;24244;51.950;5.902;2023-01-01T07:03:16;1.85;;;0.22;;
38465;SDS011;24244;51.950;5.902;2023-01-01T07:05:42;2.47;;;0.30;;
38465;SDS011;24244;51.950;5.902;2023-01-01T07:08:09;3.38;;;0.38;;
38465;SDS011;24244;51.950;5.902;2023-01-01T07:10:42;1.15;;;0.13;;
38465;SDS011;24244;51.950;5.902;2023-01-01T07:13:09;1.48;;;0.20;;
38465;SDS011;24244;51.950;5.902;2023-01-01T07:15:37;2.20;;;0.10;;
38465;SDS011;24244;51.950;5.902;2023-01-01T07:18:04;2.05;;;0.17;;
38465;SDS011;24244;51.950;5.902;2023-01-01T07:20:31;2.35;;;0.20;;
38465;SDS011;24244;51.950;5.902;2023-01-01T07:22:57;2.63;;;0.77;;
38465;SDS011;24244;51.950;5.902;2023-01-01T07:25:27;0.98;;;0.10;;
38465;SDS011;24244;51.950;5.902;2023-01-01T07:27:55;2.30;;;0.30;;
38465;SDS011;24244;51.950;5.902;2023-01-01T07:30:22;3.30;;;0.50;;
38465;SDS011;24244;51.950;5.902;2023-01-01T07:32:52;0.30;;;0.10;;
38465;SDS011;24244;51.950;5.902;2023-01-01T07:35:20;0.93;;;0.17;;
38465;SDS011;24244;51.950;5.902;2023-01-01T07:37:47;1.00;;;0.10;;
38465;SDS011;24244;51.950;5.902;2023-01-01T07:40:14;1.70;;;0.30;;
38465;SDS011;24244;51.950;5.902;2023-01-01T07:42:40;0.65;;;0.17;;
38465;SDS011;24244;51.950;5.902;2023-01-01T07:45:09;1.48;;;0.13;;
38465;SDS011;24244;51.950;5.902;2023-01-01T07:47:37;0.65;;;0.20;;
38465;SDS011;24244;51.950;5.902;2023-01-01T07:50:04;1.63;;;0.10;;
38465;SDS011;24244;51.950;5.902;2023-01-01T07:52:32;0.40;;;0.10;;
38465;SDS011;24244;51.950;5.902;2023-01-01T07:54:59;1.42;;;0.10;;
38465;SDS011;24244;51.950;5.902;2023-01-01T07:57:26;2.38;;;0.20;;
38465;SDS011;24244;51.950;5.902;2023-01-01T07:59:53;0.75;;;0.10;;
38465;SDS011;24244;51.950;5.902;2023-01-01T08:02:21;1.30;;;0.15;;
38465;SDS011;24244;51.950;5.902;2023-01-01T08:04:50;1.95;;;0.10;;
38465;SDS011;24244;51.950;5.902;2023-01-01T08:07:17;2.22;;;0.20;;
38465;SDS011;24244;51.950;5.902;2023-01-01T08:09:44;3.05;;;0.40;;
38465;SDS011;24244;51.950;5.902;2023-01-01T08:12:11;1.90;;;0.15;;
38465;SDS011;24244;51.950;5.902;2023-01-01T08:14:37;1.27;;;0.10;;
38465;SDS011;24244;51.950;5.902;2023-01-01T08:17:04;2.10;;;0.35;;
38465;SDS011;24244;51.950;5.902;2023-01-01T08:19:32;2.03;;;0.25;;
38465;SDS011;24244;51.950;5.902;2023-01-01T08:21:59;2.05;;;0.10;;
38465;SDS011;24244;51.950;5.902;2023-01-01T08:24:26;1.25;;;0.38;;
38465;SDS011;24244;51.950;5.902;2023-01-01T08:26:53;1.25;;;0.30;;
38465;SDS011;24244;51.950;5.902;2023-01-01T08:29:20;3.35;;;0.47;;
38465;SDS011;24244;51.950;5.902;2023-01-01T08:31:47;0.77;;;0.20;;
38465;SDS011;24244;51.950;5.902;2023-01-01T08:34:15;1.85;;;0.10;;
38465;SDS011;24244;51.950;5.902;2023-01-01T08:36:43;1.70;;;0.20;;
38465;SDS011;24244;51.950;5.902;2023-01-01T08:39:10;1.67;;;0.30;;
38465;SDS011;24244;51.950;5.902;2023-01-01T08:41:37;1.38;;;0.35;;
38465;SDS011;24244;51.950;5.902;2023-01-01T08:44:04;1.58;;;0.22;;
38465;SDS011;24244;51.950;5.902;2023-01-01T08:46:31;2.63;;;0.35;;
38465;SDS011;24244;51.950;5.902;2023-01-01T08:48:57;1.95;;;0.25;;
38465;SDS011;24244;51.950;5.902;2023-01-01T08:51:24;2.28;;;0.22;;
38465;SDS011;24244;51.950;5.902;2023-01-01T08:53:52;0.52;;;0.10;;
38465;SDS011;24244;51.950;5.902;2023-01-01T08:56:19;1.05;;;0.13;;
38465;SDS011;24244;51.950;5.902;2023-01-01T08:58:46;1.73;;;0.30;;
38465;SDS011;24244;51.950;5.902;2023-01-01T09:01:13;2.47;;;0.20;;
38465;SDS011;24244;51.950;5.902;2023-01-01T09:03:41;2.47;;;0.30;;
38465;SDS011;24244;51.950;5.902;2023-01-01T09:06:07;3.60;;;0.45;;
38465;SDS011;24244;51.950;5.902;2023-01-01T09:08:34;2.85;;;0.45;;
38465;SDS011;24244;51.950;5.902;2023-01-01T09:11:02;0.98;;;0.32;;
38465;SDS011;24244;51.950;5.902;2023-01-01T09:13:30;2.58;;;0.22;;
38465;SDS011;24244;51.950;5.902;2023-01-01T09:16:01;2.92;;;0.50;;
38465;SDS011;24244;51.950;5.902;2023-01-01T09:18:29;3.95;;;0.40;;
38465;SDS011;24244;51.950;5.902;2023-01-01T09:20:55;1.95;;;0.32;;
38465;SDS011;24244;51.950;5.902;2023-01-01T09:23:22;2.38;;;0.40;;
38465;SDS011;24244;51.950;5.902;2023-01-01T09:25:49;1.67;;;0.25;;
38465;SDS011;24244;51.950;5.902;2023-01-01T09:28:17;1.38;;;0.38;;
38465;SDS011;24244;51.950;5.902;2023-01-01T09:30:51;1.55;;;0.25;;
38465;SDS011;24244;51.950;5.902;2023-01-01T09:33:18;3.03;;;0.40;;
38465;SDS011;24244;51.950;5.902;2023-01-01T09:35:45;1.85;;;0.30;;
38465;SDS011;24244;51.950;5.902;2023-01-01T09:38:11;2.50;;;0.20;;
38465;SDS011;24244;51.950;5.902;2023-01-01T09:40:43;2.22;;;0.45;;
38465;SDS011;24244;51.950;5.902;2023-01-01T09:43:24;3.22;;;0.22;;
38465;SDS011;24244;51.950;5.902;2023-01-01T09:45:58;2.10;;;0.40;;
38465;SDS011;24244;51.950;5.902;2023-01-01T09:48:28;3.45;;;0.43;;
38465;SDS011;24244;51.950;5.902;2023-01-01T09:50:56;2.13;;;0.40;;
38465;SDS011;24244;51.950;5.902;2023-01-01T09:53:27;1.77;;;0.30;;
38465;SDS011;24244;51.950;5.902;2023-01-01T09:58:27;1.73;;;0.20;;
38465;SDS011;24244;51.950;5.902;2023-01-01T10:01:00;1.55;;;0.10;;
38465;SDS011;24244;51.950;5.902;2023-01-01T10:03:38;2.83;;;0.38;;
38465;SDS011;24244;51.950;5.902;2023-01-01T10:06:14;1.98;;;0.38;;
38465;SDS011;24244;51.950;5.902;2023-01-01T10:08:52;1.92;;;0.20;;
38465;SDS011;24244;51.950;5.902;2023-01-01T10:11:28;3.25;;;0.52;;
38465;SDS011;24244;51.950;5.902;2023-01-01T10:14:04;1.17;;;0.15;;
38465;SDS011;24244;51.950;5.902;2023-01-01T10:16:41;3.28;;;0.60;;
38465;SDS011;24244;51.950;5.902;2023-01-01T10:19:18;4.15;;;0.60;;
38465;SDS011;24244;51.950;5.902;2023-01-01T10:21:49;3.22;;;0.57;;
38465;SDS011;24244;51.950;5.902;2023-01-01T10:24:26;3.72;;;0.50;;
38465;SDS011;24244;51.950;5.902;2023-01-01T10:27:02;1.55;;;0.40;;
38465;SDS011;24244;51.950;5.902;2023-01-01T10:29:34;2.30;;;0.50;;
38465;SDS011;24244;51.950;5.902;2023-01-01T10:32:14;2.78;;;0.40;;
38465;SDS011;24244;51.950;5.902;2023-01-01T10:34:43;3.00;;;0.47;;
38465;SDS011;24244;51.950;5.902;2023-01-01T10:37:10;3.35;;;0.40;;
38465;SDS011;24244;51.950;5.902;2023-01-01T10:39:40;4.72;;;0.80;;
38465;SDS011;24244;51.950;5.902;2023-01-01T10:42:09;2.45;;;0.40;;
38465;SDS011;24244;51.950;5.902;2023-01-01T10:44:38;1.77;;;0.40;;
38465;SDS011;24244;51.950;5.902;2023-01-01T10:47:12;2.33;;;0.30;;
38465;SDS011;24244;51.950;5.902;2023-01-01T10:49:55;4.20;;;0.40;;
38465;SDS011;24244;51.950;5.902;2023-01-01T10:52:25;2.72;;;0.50;;
38465;SDS011;24244;51.950;5.902;2023-01-01T10:54:55;2.83;;;0.28;;
38465;SDS011;24244;51.950;5.902;2023-01-01T10:57:28;3.03;;;0.40;;
38465;SDS011;24244;51.950;5.902;2023-01-01T11:00:17;2.45;;;0.82;;
38465;SDS011;24244;51.950;5.902;2023-01-01T11:02:48;2.90;;;0.52;;
38465;SDS011;24244;51.950;5.902;2023-01-01T11:05:36;2.70;;;0.35;;
38465;SDS011;24244;51.950;5.902;2023-01-01T11:08:13;3.38;;;0.60;;
38465;SDS011;24244;51.950;5.902;2023-01-01T11:10:48;1.98;;;0.40;;
38465;SDS011;24244;51.950;5.902;2023-01-01T11:13:16;2.05;;;0.40;;
38465;SDS011;24244;51.950;5.902;2023-01-01T11:15:46;1.63;;;0.40;;
38465;SDS011;24244;51.950;5.902;2023-01-01T11:18:13;3.70;;;0.50;;
38465;SDS011;24244;51.950;5.902;2023-01-01T11:20:46;4.88;;;1.10;;
38465;SDS011;24244;51.950;5.902;2023-01-01T11:23:19;3.35;;;0.80;;
38465;SDS011;24244;51.950;5.902;2023-01-01T11:25:58;1.80;;;0.57;;
38465;SDS011;24244;51.950;5.902;2023-01-01T11:28:30;2.75;;;0.73;;
38465;SDS011;24244;51.950;5.902;2023-01-01T11:31:06;2.78;;;0.80;;
38465;SDS011;24244;51.950;5.902;2023-01-01T11:33:42;2.67;;;0.60;;
38465;SDS011;24244;51.950;5.902;2023-01-01T11:36:12;2.63;;;0.60;;
38465;SDS011;24244;51.950;5.902;2023-01-01T11:38:51;3.33;;;0.77;;
38465;SDS011;24244;51.950;5.902;2023-01-01T11:41:39;2.35;;;0.82;;
38465;SDS011;24244;51.950;5.902;2023-01-01T11:44:09;1.88;;;0.70;;
38465;SDS011;24244;51.950;5.902;2023-01-01T11:46:40;3.05;;;1.08;;
38465;SDS011;24244;51.950;5.902;2023-01-01T11:49:14;3.65;;;0.73;;
38465;SDS011;24244;51.950;5.902;2023-01-01T11:51:48;4.13;;;0.80;;
38465;SDS011;24244;51.950;5.902;2023-01-01T11:54:29;3.28;;;0.88;;
38465;SDS011;24244;51.950;5.902;2023-01-01T11:57:00;2.95;;;0.80;;
38465;SDS011;24244;51.950;5.902;2023-01-01T11:59:36;4.13;;;0.98;;
38465;SDS011;24244;51.950;5.902;2023-01-01T12:02:12;2.38;;;0.73;;
38465;SDS011;24244;51.950;5.902;2023-01-01T12:04:45;3.63;;;1.10;;
38465;SDS011;24244;51.950;5.902;2023-01-01T12:07:18;3.88;;;1.00;;
38465;SDS011;24244;51.950;5.902;2023-01-01T12:09:49;3.60;;;1.02;;
38465;SDS011;24244;51.950;5.902;2023-01-01T12:12:25;3.58;;;1.23;;
38465;SDS011;24244;51.950;5.902;2023-01-01T12:14:56;4.07;;;1.50;;
38465;SDS011;24244;51.950;5.902;2023-01-01T12:17:32;4.30;;;1.27;;
38465;SDS011;24244;51.950;5.902;2023-01-01T12:20:04;5.20;;;1.45;;
38465;SDS011;24244;51.950;5.902;2023-01-01T12:22:38;5.60;;;1.50;;
38465;SDS011;24244;51.950;5.902;2023-01-01T12:25:09;5.28;;;1.50;;
38465;SDS011;24244;51.950;5.902;2023-01-01T12:27:46;3.78;;;1.42;;
38465;SDS011;24244;51.950;5.902;2023-01-01T12:30:25;3.85;;;1.33;;
38465;SDS011;24244;51.950;5.902;2023-01-01T12:33:06;4.38;;;1.20;;
38465;SDS011;24244;51.950;5.902;2023-01-01T12:35:47;4.18;;;0.95;;
38465;SDS011;24244;51.950;5.902;2023-01-01T12:38:43;13.95;;;2.75;;
38465;SDS011;24244;51.950;5.902;2023-01-01T12:41:25;3.58;;;0.90;;
38465;SDS011;24244;51.950;5.902;2023-01-01T12:44:03;3.65;;;0.93;;
38465;SDS011;24244;51.950;5.902;2023-01-01T12:46:43;3.95;;;1.08;;
38465;SDS011;24244;51.950;5.902;2023-01-01T12:52:24;3.22;;;0.95;;
38465;SDS011;24244;51.950;5.902;2023-01-01T12:58:13;4.20;;;0.90;;
38465;SDS011;24244;51.950;5.902;2023-01-01T13:00:49;3.85;;;1.02;;
38465;SDS011;24244;51.950;5.902;2023-01-01T13:03:23;5.70;;;1.20;;
38465;SDS011;24244;51.950;5.902;2023-01-01T13:05:58;3.72;;;0.80;;
38465;SDS011;24244;51.950;5.902;2023-01-01T13:08:29;5.25;;;1.30;;
38465;SDS011;24244;51.950;5.902;2023-01-01T13:10:57;6.28;;;1.58;;
38465;SDS011;24244;51.950;5.902;2023-01-01T13:13:26;3.63;;;0.95;;
38465;SDS011;24244;51.950;5.902;2023-01-01T13:15:54;2.95;;;0.70;;
38465;SDS011;24244;51.950;5.902;2023-01-01T13:18:26;3.78;;;0.70;;
38465;SDS011;24244;51.950;5.902;2023-01-01T13:20:57;5.15;;;0.90;;
38465;SDS011;24244;51.950;5.902;2023-01-01T13:26:36;5.32;;;0.82;;
38465;SDS011;24244;51.950;5.902;2023-01-01T13:29:27;3.90;;;0.90;;
38465;SDS011;24244;51.950;5.902;2023-01-01T13:32:09;4.07;;;0.80;;
38465;SDS011;24244;51.950;5.902;2023-01-01T13:37:44;5.47;;;0.88;;
38465;SDS011;24244;51.950;5.902;2023-01-01T13:43:26;5.38;;;0.82;;
38465;SDS011;24244;51.950;5.902;2023-01-01T13:45:56;4.15;;;0.85;;
38465;SDS011;24244;51.950;5.902;2023-01-01T13:54:39;4.05;;;0.55;;
38465;SDS011;24244;51.950;5.902;2023-01-01T13:57:34;3.75;;;0.70;;
38465;SDS011;24244;51.950;5.902;2023-01-01T14:00:14;8.02;;;0.93;;
38465;SDS011;24244;51.950;5.902;2023-01-01T14:02:47;4.07;;;0.73;;
38465;SDS011;24244;51.950;5.902;2023-01-01T14:05:20;4.55;;;0.93;;
38465;SDS011;24244;51.950;5.902;2023-01-01T14:07:53;4.88;;;0.77;;
38465;SDS011;24244;51.950;5.902;2023-01-01T14:10:22;2.58;;;0.70;;
38465;SDS011;24244;51.950;5.902;2023-01-01T14:12:53;2.72;;;0.80;;
38465;SDS011;24244;51.950;5.902;2023-01-01T14:15:23;3.20;;;0.57;;
38465;SDS011;24244;51.950;5.902;2023-01-01T14:17:52;3.42;;;0.70;;
38465;SDS011;24244;51.950;5.902;2023-01-01T14:20:22;3.47;;;0.63;;
38465;SDS011;24244;51.950;5.902;2023-01-01T14:22:54;2.72;;;0.70;;
38465;SDS011;24244;51.950;5.902;2023-01-01T14:25:24;3.88;;;0.82;;
38465;SDS011;24244;51.950;5.902;2023-01-01T14:27:55;5.30;;;0.80;;
38465;SDS011;24244;51.950;5.902;2023-01-01T14:30:24;1.83;;;0.68;;
38465;SDS011;24244;51.950;5.902;2023-01-01T14:32:54;5.45;;;1.65;;
38465;SDS011;24244;51.950;5.902;2023-01-01T14:37:49;5.95;;;2.00;;
38465;SDS011;24244;51.950;5.902;2023-01-01T14:40:17;4.95;;;1.83;;
38465;SDS011;24244;51.950;5.902;2023-01-01T14:42:55;4.38;;;1.52;;
38465;SDS011;24244;51.950;5.902;2023-01-01T14:45:25;3.92;;;1.13;;
38465;SDS011;24244;51.950;5.902;2023-01-01T14:47:52;5.40;;;1.33;;
38465;SDS011;24244;51.950;5.902;2023-01-01T14:50:23;6.10;;;1.27;;
38465;SDS011;24244;51.950;5.902;2023-01-01T14:52:55;3.55;;;0.85;;
38465;SDS011;24244;51.950;5.902;2023-01-01T14:55:30;3.22;;;1.33;;
38465;SDS011;24244;51.950;5.902;2023-01-01T14:58:02;3.60;;;1.02;;
38465;SDS011;24244;51.950;5.902;2023-01-01T15:00:30;2.40;;;0.90;;
38465;SDS011;24244;51.950;5.902;2023-01-01T15:03:03;5.93;;;0.98;;
38465;SDS011;24244;51.950;5.902;2023-01-01T15:05:32;4.25;;;0.80;;
38465;SDS011;24244;51.950;5.902;2023-01-01T15:08:03;3.92;;;0.68;;
38465;SDS011;24244;51.950;5.902;2023-01-01T15:10:33;5.70;;;0.90;;
38465;SDS011;24244;51.950;5.902;2023-01-01T15:13:07;1.65;;;0.43;;
38465;SDS011;24244;51.950;5.902;2023-01-01T15:15:35;5.97;;;0.80;;
38465;SDS011;24244;51.950;5.902;2023-01-01T15:18:05;2.83;;;0.63;;
38465;SDS011;24244;51.950;5.902;2023-01-01T15:20:32;4.10;;;0.82;;
38465;SDS011;24244;51.950;5.902;2023-01-01T15:23:02;1.67;;;0.60;;
38465;SDS011;24244;51.950;5.902;2023-01-01T15:25:35;3.20;;;0.55;;
38465;SDS011;24244;51.950;5.902;2023-01-01T15:28:04;4.20;;;0.70;;
38465;SDS011;24244;51.950;5.902;2023-01-01T15:30:32;3.72;;;0.73;;
38465;SDS011;24244;51.950;5.902;2023-01-01T15:33:08;3.33;;;0.82;;
38465;SDS011;24244;51.950;5.902;2023-01-01T15:35:40;3.72;;;0.70;;
38465;SDS011;24244;51.950;5.902;2023-01-01T15:38:14;5.18;;;0.90;;
38465;SDS011;24244;51.950;5.902;2023-01-01T15:40:45;4.43;;;0.70;;